www.cux-wetter.de
Wetterdaten: Donnerstag, 04.03.2010
Datum Zeit Temp. A. Feuchte A. Luftdruck Regen Wind Richtung Richtung Sonnenschein Solar Taupunkt Windchill Windben
04.03.2010 00:04 2,4 C 79 % 1018,5 hPa 0,0 l/m 3,7 km/h (1 Bft) N-NW 340 0 min 0 W/m -0,9 C 2,4 C 3,7 km/h (1 Bft)
04.03.2010 00:10 2,4 C 78 % 1018,5 hPa 0,0 l/m 6,5 km/h (2 Bft) N-NW 340 0 min 0 W/m -1,0 C 2,3 C 6,5 km/h (2 Bft)
04.03.2010 00:14 2,3 C 78 % 1018,5 hPa 0,0 l/m 9,7 km/h (2 Bft) N-NW 345 0 min 0 W/m -1,1 C -0,7 C 9,7 km/h (2 Bft)
04.03.2010 00:19 2,3 C 79 % 1018,5 hPa 0,0 l/m 8,4 km/h (2 Bft) N-NW 340 0 min 0 W/m -1,0 C 0,4 C 8,4 km/h (2 Bft)
04.03.2010 00:24 2,3 C 79 % 1018,5 hPa 0,0 l/m 11,6 km/h (2 Bft) N 360 0 min 0 W/m -1,0 C -2,1 C 11,6 km/h (2 Bft)
04.03.2010 00:29 2,3 C 79 % 1018,5 hPa 0,0 l/m 6,7 km/h (2 Bft) N 360 0 min 0 W/m -1,0 C 2,0 C 6,7 km/h (2 Bft)
04.03.2010 00:34 2,2 C 79 % 1018,5 hPa 0,0 l/m 11,0 km/h (2 Bft) N 360 0 min 0 W/m -1,1 C -1,8 C 11,0 km/h (2 Bft)
04.03.2010 00:40 2,1 C 79 % 1018,5 hPa 0,0 l/m 8,2 km/h (2 Bft) N 355 0 min 0 W/m -1,2 C 0,4 C 8,2 km/h (2 Bft)
04.03.2010 00:45 2,1 C 79 % 1018,5 hPa 0,0 l/m 7,7 km/h (2 Bft) N 355 0 min 0 W/m -1,2 C 0,8 C 7,7 km/h (2 Bft)
04.03.2010 00:49 2,2 C 79 % 1017,5 hPa 0,0 l/m 11,7 km/h (2 Bft) N-NW 340 0 min 0 W/m -1,1 C -2,3 C 11,7 km/h (2 Bft)
04.03.2010 00:54 2,1 C 79 % 1018,5 hPa 0,0 l/m 11,0 km/h (2 Bft) N 360 0 min 0 W/m -1,2 C -1,9 C 11,0 km/h (2 Bft)
04.03.2010 00:59 2,2 C 79 % 1018,5 hPa 0,0 l/m 10,2 km/h (2 Bft) N 5 0 min 0 W/m -1,1 C -1,2 C 10,2 km/h (2 Bft)
04.03.2010 01:05 2,2 C 79 % 1018,5 hPa 0,0 l/m 9,4 km/h (2 Bft) N 355 0 min 0 W/m -1,1 C -0,5 C 9,4 km/h (2 Bft)
04.03.2010 01:09 2,2 C 79 % 1018,5 hPa 0,0 l/m 9,6 km/h (2 Bft) N 360 0 min 0 W/m -1,1 C -0,7 C 9,6 km/h (2 Bft)
04.03.2010 01:14 2,2 C 79 % 1017,5 hPa 0,0 l/m 9,1 km/h (2 Bft) N 360 0 min 0 W/m -1,1 C -0,3 C 9,1 km/h (2 Bft)
04.03.2010 01:19 2,2 C 79 % 1017,5 hPa 0,0 l/m 8,9 km/h (2 Bft) N 355 0 min 0 W/m -1,1 C -0,1 C 8,9 km/h (2 Bft)
04.03.2010 01:24 2,2 C 79 % 1017,5 hPa 0,0 l/m 9,0 km/h (2 Bft) N 355 0 min 0 W/m -1,1 C -0,2 C 9,0 km/h (2 Bft)
04.03.2010 01:29 2,2 C 79 % 1017,5 hPa 0,0 l/m 11,5 km/h (2 Bft) N 355 0 min 0 W/m -1,1 C -2,1 C 11,5 km/h (2 Bft)
04.03.2010 01:35 2,2 C 79 % 1017,5 hPa 0,0 l/m 10,5 km/h (2 Bft) N 355 0 min 0 W/m -1,1 C -1,4 C 10,5 km/h (2 Bft)
04.03.2010 01:40 2,2 C 79 % 1017,5 hPa 0,0 l/m 12,0 km/h (2 Bft) N 355 0 min 0 W/m -1,1 C -2,5 C 12,0 km/h (2 Bft)
04.03.2010 01:44 2,1 C 79 % 1017,5 hPa 0,0 l/m 15,1 km/h (3 Bft) N 350 0 min 0 W/m -1,2 C -4,5 C 15,1 km/h (3 Bft)
04.03.2010 01:49 2,1 C 79 % 1017,5 hPa 0,0 l/m 11,5 km/h (2 Bft) N 355 0 min 0 W/m -1,2 C -2,2 C 11,5 km/h (2 Bft)
04.03.2010 01:54 2,2 C 79 % 1017,5 hPa 0,0 l/m 8,7 km/h (2 Bft) N-NW 345 0 min 0 W/m -1,1 C 0,0 C 8,7 km/h (2 Bft)
04.03.2010 01:59 2,1 C 79 % 1017,5 hPa 0,0 l/m 10,6 km/h (2 Bft) N 355 0 min 0 W/m -1,2 C -1,6 C 10,6 km/h (2 Bft)
04.03.2010 02:04 2,1 C 79 % 1017,5 hPa 0,0 l/m 9,1 km/h (2 Bft) N 350 0 min 0 W/m -1,2 C -0,4 C 9,1 km/h (2 Bft)
04.03.2010 02:10 2,2 C 79 % 1017,5 hPa 0,0 l/m 8,9 km/h (2 Bft) N 355 0 min 0 W/m -1,1 C -0,1 C 8,9 km/h (2 Bft)
04.03.2010 02:15 2,3 C 79 % 1017,5 hPa 0,0 l/m 10,4 km/h (2 Bft) N 350 0 min 0 W/m -1,0 C -1,2 C 10,4 km/h (2 Bft)
04.03.2010 02:19 2,3 C 79 % 1017,5 hPa 0,0 l/m 9,6 km/h (2 Bft) N-NW 340 0 min 0 W/m -1,0 C -0,6 C 9,6 km/h (2 Bft)
04.03.2010 02:24 2,3 C 79 % 1017,5 hPa 0,0 l/m 9,4 km/h (2 Bft) N 350 0 min 0 W/m -1,0 C -0,4 C 9,4 km/h (2 Bft)
04.03.2010 02:29 2,3 C 79 % 1017,5 hPa 0,0 l/m 8,6 km/h (2 Bft) N-NW 340 0 min 0 W/m -1,0 C 0,2 C 8,6 km/h (2 Bft)
04.03.2010 02:34 2,3 C 79 % 1017,5 hPa 0,0 l/m 9,0 km/h (2 Bft) N 5 0 min 0 W/m -1,0 C -0,1 C 9,0 km/h (2 Bft)
04.03.2010 02:39 2,2 C 79 % 1017,5 hPa 0,0 l/m 11,3 km/h (2 Bft) N 350 0 min 0 W/m -1,1 C -2,0 C 11,3 km/h (2 Bft)
04.03.2010 02:45 2,2 C 79 % 1017,5 hPa 0,0 l/m 7,3 km/h (2 Bft) N 350 0 min 0 W/m -1,1 C 1,3 C 7,3 km/h (2 Bft)
04.03.2010 02:50 2,2 C 79 % 1017,5 hPa 0,0 l/m 12,0 km/h (2 Bft) N 350 0 min 0 W/m -1,1 C -2,5 C 12,0 km/h (2 Bft)
04.03.2010 02:54 2,3 C 79 % 1017,5 hPa 0,0 l/m 7,5 km/h (2 Bft) N-NW 335 0 min 0 W/m -1,0 C 1,2 C 7,5 km/h (2 Bft)
04.03.2010 02:59 2,3 C 79 % 1017,5 hPa 0,0 l/m 8,9 km/h (2 Bft) NW 315 0 min 0 W/m -1,0 C -0,0 C 8,9 km/h (2 Bft)
04.03.2010 03:05 2,3 C 79 % 1017,5 hPa 0,0 l/m 5,5 km/h (2 Bft) NW 315 0 min 0 W/m -1,0 C 2,3 C 5,5 km/h (2 Bft)
04.03.2010 03:10 2,3 C 79 % 1017,5 hPa 0,0 l/m 0,4 km/h (0 Bft) NW 315 0 min 0 W/m -1,0 C 2,3 C 0,4 km/h (0 Bft)
04.03.2010 03:14 2,3 C 79 % 1017,5 hPa 0,0 l/m 5,2 km/h (1 Bft) NW 315 0 min 0 W/m -1,0 C 2,3 C 5,2 km/h (1 Bft)
04.03.2010 03:19 2,3 C 79 % 1017,5 hPa 0,0 l/m 5,9 km/h (2 Bft) NW 315 0 min 0 W/m -1,0 C 2,3 C 5,9 km/h (2 Bft)
04.03.2010 03:24 2,3 C 79 % 1017,5 hPa 0,0 l/m 6,1 km/h (2 Bft) NW 315 0 min 0 W/m -1,0 C 2,3 C 6,1 km/h (2 Bft)
04.03.2010 03:29 2,3 C 79 % 1017,5 hPa 0,0 l/m 6,8 km/h (2 Bft) NW 315 0 min 0 W/m -1,0 C 1,9 C 6,8 km/h (2 Bft)
04.03.2010 03:34 2,3 C 79 % 1017,5 hPa 0,0 l/m 8,0 km/h (2 Bft) NW 315 0 min 0 W/m -1,0 C 0,8 C 8,0 km/h (2 Bft)
04.03.2010 03:40 2,3 C 79 % 1017,5 hPa 0,0 l/m 10,3 km/h (2 Bft) NW 315 0 min 0 W/m -1,0 C -1,1 C 10,3 km/h (2 Bft)
04.03.2010 03:45 2,2 C 79 % 1017,5 hPa 0,0 l/m 8,5 km/h (2 Bft) NW 310 0 min 0 W/m -1,1 C 0,2 C 8,5 km/h (2 Bft)
04.03.2010 03:49 2,2 C 79 % 1017,5 hPa 0,0 l/m 8,7 km/h (2 Bft) NW 315 0 min 0 W/m -1,1 C 0,0 C 8,7 km/h (2 Bft)
04.03.2010 03:54 2,3 C 80 % 1017,5 hPa 0,0 l/m 8,8 km/h (2 Bft) NW 315 0 min 0 W/m -0,8 C 0,1 C 8,8 km/h (2 Bft)
04.03.2010 03:59 2,3 C 80 % 1017,5 hPa 0,0 l/m 8,9 km/h (2 Bft) NW 320 0 min 0 W/m -0,8 C -0,0 C 8,9 km/h (2 Bft)
04.03.2010 04:04 2,2 C 80 % 1017,5 hPa 0,0 l/m 8,9 km/h (2 Bft) NW 320 0 min 0 W/m -0,9 C -0,1 C 8,9 km/h (2 Bft)
04.03.2010 04:09 2,2 C 80 % 1017,5 hPa 0,0 l/m 9,6 km/h (2 Bft) NW 310 0 min 0 W/m -0,9 C -0,7 C 9,6 km/h (2 Bft)
04.03.2010 04:14 2,2 C 80 % 1016,5 hPa 0,0 l/m 8,8 km/h (2 Bft) NW 320 0 min 0 W/m -0,9 C -0,0 C 8,8 km/h (2 Bft)
04.03.2010 04:19 2,2 C 80 % 1016,5 hPa 0,0 l/m 9,9 km/h (2 Bft) NW 325 0 min 0 W/m -0,9 C -0,9 C 9,9 km/h (2 Bft)
04.03.2010 04:24 2,3 C 80 % 1016,5 hPa 0,0 l/m 12,3 km/h (2 Bft) NW 315 0 min 0 W/m -0,8 C -2,6 C 12,3 km/h (2 Bft)
04.03.2010 04:30 2,3 C 81 % 1016,5 hPa 0,0 l/m 14,1 km/h (3 Bft) NW 310 0 min 0 W/m -0,6 C -3,7 C 14,1 km/h (3 Bft)
04.03.2010 04:35 2,3 C 81 % 1016,5 hPa 0,0 l/m 7,0 km/h (2 Bft) NW 315 0 min 0 W/m -0,6 C 1,7 C 7,0 km/h (2 Bft)
04.03.2010 04:39 2,3 C 81 % 1016,5 hPa 0,0 l/m 10,0 km/h (2 Bft) NW 320 0 min 0 W/m -0,6 C -0,9 C 10,0 km/h (2 Bft)
04.03.2010 04:44 2,3 C 81 % 1016,5 hPa 0,0 l/m 7,7 km/h (2 Bft) NW 310 0 min 0 W/m -0,6 C 1,0 C 7,7 km/h (2 Bft)
04.03.2010 04:49 2,3 C 81 % 1016,5 hPa 0,0 l/m 7,8 km/h (2 Bft) NW 315 0 min 0 W/m -0,6 C 1,0 C 7,8 km/h (2 Bft)
04.03.2010 04:54 2,3 C 81 % 1016,5 hPa 0,0 l/m 7,6 km/h (2 Bft) W-NW 300 0 min 0 W/m -0,6 C 1,1 C 7,6 km/h (2 Bft)
04.03.2010 04:59 2,3 C 81 % 1016,5 hPa 0,0 l/m 10,0 km/h (2 Bft) NW 320 0 min 0 W/m -0,6 C -0,9 C 10,0 km/h (2 Bft)
04.03.2010 05:04 2,3 C 81 % 1016,5 hPa 0,0 l/m 9,6 km/h (2 Bft) NW 315 0 min 0 W/m -0,6 C -0,6 C 9,6 km/h (2 Bft)
04.03.2010 05:09 2,3 C 81 % 1016,5 hPa 0,0 l/m 9,4 km/h (2 Bft) NW 305 0 min 0 W/m -0,6 C -0,4 C 9,4 km/h (2 Bft)
04.03.2010 05:14 2,3 C 81 % 1016,5 hPa 0,0 l/m 9,9 km/h (2 Bft) NW 310 0 min 0 W/m -0,6 C -0,8 C 9,9 km/h (2 Bft)
04.03.2010 05:20 2,2 C 81 % 1016,5 hPa 0,0 l/m 11,1 km/h (2 Bft) NW 310 0 min 0 W/m -0,7 C -1,8 C 11,1 km/h (2 Bft)
04.03.2010 05:25 2,2 C 81 % 1016,5 hPa 0,0 l/m 10,6 km/h (2 Bft) NW 310 0 min 0 W/m -0,7 C -1,5 C 10,6 km/h (2 Bft)
04.03.2010 05:29 2,3 C 81 % 1016,5 hPa 0,0 l/m 11,0 km/h (2 Bft) NW 310 0 min 0 W/m -0,6 C -1,7 C 11,0 km/h (2 Bft)
04.03.2010 05:34 2,3 C 81 % 1016,5 hPa 0,0 l/m 10,3 km/h (2 Bft) W-NW 300 0 min 0 W/m -0,6 C -1,1 C 10,3 km/h (2 Bft)
04.03.2010 05:39 2,3 C 81 % 1016,5 hPa 0,0 l/m 9,0 km/h (2 Bft) NW 320 0 min 0 W/m -0,6 C -0,1 C 9,0 km/h (2 Bft)
04.03.2010 05:44 2,3 C 81 % 1016,5 hPa 0,0 l/m 12,9 km/h (3 Bft) NW 315 0 min 0 W/m -0,6 C -2,9 C 12,9 km/h (3 Bft)
04.03.2010 05:49 2,3 C 81 % 1016,5 hPa 0,0 l/m 7,0 km/h (2 Bft) NW 315 0 min 0 W/m -0,6 C 1,7 C 7,0 km/h (2 Bft)
04.03.2010 05:55 2,3 C 81 % 1016,5 hPa 0,0 l/m 11,3 km/h (2 Bft) NW 320 0 min 0 W/m -0,6 C -1,9 C 11,3 km/h (2 Bft)
04.03.2010 06:00 2,3 C 81 % 1016,5 hPa 0,0 l/m 12,7 km/h (3 Bft) NW 320 0 min 0 W/m -0,6 C -2,8 C 12,7 km/h (3 Bft)
04.03.2010 06:04 2,3 C 81 % 1016,5 hPa 0,0 l/m 12,8 km/h (3 Bft) NW 315 0 min 0 W/m -0,6 C -2,9 C 12,8 km/h (3 Bft)
04.03.2010 06:10 2,3 C 81 % 1016,5 hPa 0,0 l/m 10,4 km/h (2 Bft) NW 310 0 min 0 W/m -0,6 C -1,2 C 10,4 km/h (2 Bft)
04.03.2010 06:15 2,3 C 81 % 1016,5 hPa 0,0 l/m 9,6 km/h (2 Bft) NW 310 0 min 0 W/m -0,6 C -0,6 C 9,6 km/h (2 Bft)
04.03.2010 06:19 2,4 C 81 % 1016,5 hPa 0,0 l/m 8,3 km/h (2 Bft) W-NW 300 0 min 0 W/m -0,5 C 0,6 C 8,3 km/h (2 Bft)
04.03.2010 06:24 2,4 C 81 % 1016,5 hPa 0,0 l/m 10,4 km/h (2 Bft) NW 305 0 min 0 W/m -0,5 C -1,1 C 10,4 km/h (2 Bft)
04.03.2010 06:29 2,4 C 81 % 1016,5 hPa 0,0 l/m 14,3 km/h (3 Bft) NW 325 0 min 0 W/m -0,5 C -3,7 C 14,3 km/h (3 Bft)
04.03.2010 06:34 2,4 C 81 % 1016,5 hPa 0,0 l/m 10,2 km/h (2 Bft) NW 305 0 min 0 W/m -0,5 C -1,0 C 10,2 km/h (2 Bft)
04.03.2010 06:40 2,4 C 81 % 1016,5 hPa 0,0 l/m 11,7 km/h (2 Bft) NW 315 0 min 0 W/m -0,5 C -2,0 C 11,7 km/h (2 Bft)
04.03.2010 06:45 2,3 C 80 % 1016,5 hPa 0,0 l/m 10,2 km/h (2 Bft) NW 305 0 min 0 W/m -0,8 C -1,1 C 10,2 km/h (2 Bft)
04.03.2010 06:49 2,3 C 80 % 1016,5 hPa 0,0 l/m 10,1 km/h (2 Bft) NW 315 0 min 0 W/m -0,8 C -1,0 C 10,1 km/h (2 Bft)
04.03.2010 06:54 2,3 C 81 % 1016,5 hPa 0,0 l/m 13,1 km/h (3 Bft) NW 315 0 min 0 W/m -0,6 C -3,1 C 13,1 km/h (3 Bft)
04.03.2010 06:59 2,3 C 81 % 1016,5 hPa 0,0 l/m 10,6 km/h (2 Bft) N-NW 330 0 min 0 W/m -0,6 C -1,4 C 10,6 km/h (2 Bft)
04.03.2010 07:04 2,3 C 81 % 1016,5 hPa 0,0 l/m 13,2 km/h (3 Bft) N-NW 330 0 min 0 W/m -0,6 C -3,1 C 13,2 km/h (3 Bft)
04.03.2010 07:09 2,2 C 81 % 1016,5 hPa 0,0 l/m 8,1 km/h (2 Bft) N-NW 330 0 min 0 W/m -0,7 C 0,6 C 8,1 km/h (2 Bft)
04.03.2010 07:14 2,2 C 81 % 1016,5 hPa 0,0 l/m 13,9 km/h (3 Bft) N-NW 340 0 min 0 W/m -0,7 C -3,7 C 13,9 km/h (3 Bft)
04.03.2010 07:19 2,2 C 81 % 1016,5 hPa 0,0 l/m 11,7 km/h (2 Bft) NW 320 0 min 0 W/m -0,7 C -2,3 C 11,7 km/h (2 Bft)
04.03.2010 07:24 2,2 C 81 % 1016,5 hPa 0,0 l/m 10,1 km/h (2 Bft) N-NW 340 0 min 0 W/m -0,7 C -1,1 C 10,1 km/h (2 Bft)
04.03.2010 07:30 2,2 C 81 % 1016,5 hPa 0,0 l/m 10,1 km/h (2 Bft) N-NW 330 0 min 0 W/m -0,7 C -1,1 C 10,1 km/h (2 Bft)
04.03.2010 07:35 2,1 C 81 % 1016,5 hPa 0,0 l/m 9,4 km/h (2 Bft) NW 315 0 min 0 W/m -0,8 C -0,7 C 9,4 km/h (2 Bft)
04.03.2010 07:39 2,2 C 81 % 1016,5 hPa 0,0 l/m 8,9 km/h (2 Bft) N-NW 340 0 min 0 W/m -0,7 C -0,1 C 8,9 km/h (2 Bft)
04.03.2010 07:44 2,2 C 81 % 1016,5 hPa 0,0 l/m 7,6 km/h (2 Bft) N-NW 330 0 min 0 W/m -0,7 C 1,0 C 7,6 km/h (2 Bft)
04.03.2010 07:49 2,2 C 81 % 1016,5 hPa 0,0 l/m 8,3 km/h (2 Bft) NW 325 0 min 0 W/m -0,7 C 0,4 C 8,3 km/h (2 Bft)
04.03.2010 07:54 2,2 C 81 % 1016,5 hPa 0,0 l/m 8,4 km/h (2 Bft) NW 310 0 min 0 W/m -0,7 C 0,3 C 8,4 km/h (2 Bft)
04.03.2010 08:00 2,3 C 81 % 1016,5 hPa 0,0 l/m 12,9 km/h (3 Bft) NW 320 0 min 0 W/m -0,6 C -2,9 C 12,9 km/h (3 Bft)
04.03.2010 08:04 2,3 C 81 % 1016,5 hPa 0,0 l/m 8,4 km/h (2 Bft) NW 325 0 min 0 W/m -0,6 C 0,4 C 8,4 km/h (2 Bft)
04.03.2010 08:09 2,3 C 81 % 1016,5 hPa 0,0 l/m 12,0 km/h (2 Bft) N-NW 335 0 min 0 W/m -0,6 C -2,4 C 12,0 km/h (2 Bft)
04.03.2010 08:15 2,4 C 81 % 1016,5 hPa 0,0 l/m 12,3 km/h (2 Bft) NW 320 0 min 0 W/m -0,5 C -2,4 C 12,3 km/h (2 Bft)
04.03.2010 08:20 2,3 C 81 % 1016,5 hPa 0,0 l/m 11,9 km/h (2 Bft) N 5 0 min 0 W/m -0,6 C -2,3 C 11,9 km/h (2 Bft)
04.03.2010 08:24 2,2 C 81 % 1016,5 hPa 0,0 l/m 17,0 km/h (3 Bft) N-NW 345 0 min 0 W/m -0,7 C -5,4 C 17,0 km/h (3 Bft)
04.03.2010 08:29 2,3 C 81 % 1016,5 hPa 0,0 l/m 13,9 km/h (3 Bft) N 360 0 min 0 W/m -0,6 C -3,6 C 13,9 km/h (3 Bft)
04.03.2010 08:34 2,2 C 81 % 1016,5 hPa 0,0 l/m 16,6 km/h (3 Bft) N 360 0 min 0 W/m -0,7 C -5,2 C 16,6 km/h (3 Bft)
04.03.2010 08:39 2,2 C 81 % 1016,5 hPa 0,0 l/m 15,5 km/h (3 Bft) N 5 0 min 0 W/m -0,7 C -4,6 C 15,5 km/h (3 Bft)
04.03.2010 08:44 2,2 C 81 % 1016,5 hPa 0,0 l/m 17,7 km/h (3 Bft) N 10 0 min 0 W/m -0,7 C -5,7 C 17,7 km/h (3 Bft)
04.03.2010 08:50 2,3 C 81 % 1016,5 hPa 0,0 l/m 19,7 km/h (3 Bft) N 360 0 min 0 W/m -0,6 C -6,5 C 19,7 km/h (3 Bft)
04.03.2010 08:55 2,3 C 81 % 1016,5 hPa 0,0 l/m 16,3 km/h (3 Bft) N-NO 20 0 min 0 W/m -0,6 C -4,9 C 16,3 km/h (3 Bft)
04.03.2010 08:59 2,3 C 81 % 1016,5 hPa 0,0 l/m 15,6 km/h (3 Bft) N-NO 15 0 min 0 W/m -0,6 C -4,5 C 15,6 km/h (3 Bft)
04.03.2010 09:05 2,4 C 81 % 1017,5 hPa 0,0 l/m 18,2 km/h (3 Bft) N-NO 15 0 min 0 W/m -0,5 C -5,7 C 18,2 km/h (3 Bft)
04.03.2010 09:10 2,4 C 81 % 1017,5 hPa 0,0 l/m 17,8 km/h (3 Bft) N-NO 15 0 min 0 W/m -0,5 C -5,5 C 17,8 km/h (3 Bft)
04.03.2010 09:14 2,4 C 81 % 1017,5 hPa 0,0 l/m 19,9 km/h (4 Bft) N 5 0 min 0 W/m -0,5 C -6,5 C 19,9 km/h (4 Bft)
04.03.2010 09:19 2,5 C 81 % 1017,5 hPa 0,0 l/m 21,3 km/h (4 Bft) N-NO 25 0 min 0 W/m -0,4 C -6,9 C 21,3 km/h (4 Bft)
04.03.2010 09:24 2,5 C 81 % 1017,5 hPa 0,0 l/m 16,3 km/h (3 Bft) N-NO 15 0 min 0 W/m -0,4 C -4,7 C 16,3 km/h (3 Bft)
04.03.2010 09:29 2,7 C 81 % 1017,5 hPa 0,0 l/m 17,1 km/h (3 Bft) NO 40 0 min 0 W/m -0,2 C -4,8 C 17,1 km/h (3 Bft)
04.03.2010 09:35 2,8 C 81 % 1017,5 hPa 0,0 l/m 18,5 km/h (3 Bft) N-NO 20 0 min 0 W/m -0,1 C -5,4 C 18,5 km/h (3 Bft)
04.03.2010 09:40 2,9 C 81 % 1017,5 hPa 0,0 l/m 19,2 km/h (3 Bft) N-NO 20 0 min 0 W/m -0,0 C -5,5 C 19,2 km/h (3 Bft)
04.03.2010 09:44 3,0 C 80 % 1017,5 hPa 0,0 l/m 23,1 km/h (4 Bft) NO 45 0 min 0 W/m -0,1 C -7,0 C 23,1 km/h (4 Bft)
04.03.2010 09:49 3,1 C 80 % 1017,5 hPa 0,0 l/m 14,3 km/h (3 Bft) N-NO 25 0 min 0 W/m -0,0 C -2,8 C 14,3 km/h (3 Bft)
04.03.2010 09:54 3,2 C 79 % 1017,5 hPa 0,0 l/m 29,3 km/h (5 Bft) N-NO 25 0 min 0 W/m -0,1 C -8,7 C 29,3 km/h (5 Bft)
04.03.2010 09:59 3,3 C 78 % 1017,5 hPa 0,0 l/m 20,5 km/h (4 Bft) NO 45 0 min 0 W/m -0,2 C -5,6 C 20,5 km/h (4 Bft)
04.03.2010 10:04 3,4 C 78 % 1017,5 hPa 0,0 l/m 19,4 km/h (3 Bft) N-NO 25 0 min 0 W/m -0,1 C -5,0 C 19,4 km/h (3 Bft)
04.03.2010 10:09 3,7 C 79 % 1017,5 hPa 0,0 l/m 18,5 km/h (3 Bft) NO 35 0 min 0 W/m 0,4 C -4,2 C 18,5 km/h (3 Bft)
04.03.2010 10:14 4,0 C 77 % 1017,5 hPa 0,0 l/m 18,1 km/h (3 Bft) NO 35 0 min 0 W/m 0,3 C -3,6 C 18,1 km/h (3 Bft)
04.03.2010 10:20 4,3 C 75 % 1017,5 hPa 0,0 l/m 21,5 km/h (4 Bft) N-NO 25 0 min 0 W/m 0,3 C -4,7 C 21,5 km/h (4 Bft)
04.03.2010 10:25 4,2 C 75 % 1017,5 hPa 0,0 l/m 21,1 km/h (4 Bft) N-NO 30 0 min 0 W/m 0,2 C -4,6 C 21,1 km/h (4 Bft)
04.03.2010 10:29 4,0 C 75 % 1017,5 hPa 0,0 l/m 19,8 km/h (3 Bft) NO 45 0 min 0 W/m -0,0 C -4,4 C 19,8 km/h (3 Bft)
04.03.2010 10:34 3,9 C 75 % 1017,5 hPa 0,0 l/m 19,0 km/h (3 Bft) NO 45 0 min 0 W/m -0,1 C -4,2 C 19,0 km/h (3 Bft)
04.03.2010 10:39 4,0 C 75 % 1017,5 hPa 0,0 l/m 19,0 km/h (3 Bft) N-NO 25 0 min 0 W/m -0,0 C -4,0 C 19,0 km/h (3 Bft)
04.03.2010 10:44 3,9 C 74 % 1017,5 hPa 0,0 l/m 21,0 km/h (4 Bft) N-NO 25 0 min 0 W/m -0,3 C -5,0 C 21,0 km/h (4 Bft)
04.03.2010 10:50 3,7 C 74 % 1018,5 hPa 0,0 l/m 19,0 km/h (3 Bft) NO 45 0 min 0 W/m -0,5 C -4,4 C 19,0 km/h (3 Bft)
04.03.2010 10:55 3,5 C 75 % 1018,5 hPa 0,0 l/m 14,8 km/h (3 Bft) NO 40 0 min 0 W/m -0,5 C -2,6 C 14,8 km/h (3 Bft)
04.03.2010 10:59 3,2 C 76 % 1018,5 hPa 0,0 l/m 15,6 km/h (3 Bft) NO 40 0 min 0 W/m -0,6 C -3,4 C 15,6 km/h (3 Bft)
04.03.2010 11:05 3,0 C 75 % 1018,5 hPa 0,0 l/m 28,8 km/h (5 Bft) NO 40 0 min 0 W/m -1,0 C -8,8 C 28,8 km/h (5 Bft)
04.03.2010 11:10 2,8 C 75 % 1018,5 hPa 0,0 l/m 17,3 km/h (3 Bft) NO 50 0 min 0 W/m -1,2 C -4,8 C 17,3 km/h (3 Bft)
04.03.2010 11:14 2,5 C 75 % 1018,5 hPa 0,0 l/m 23,3 km/h (4 Bft) NO 40 0 min 0 W/m -1,5 C -7,7 C 23,3 km/h (4 Bft)
04.03.2010 11:19 2,5 C 76 % 1018,5 hPa 0,0 l/m 20,9 km/h (4 Bft) NO 40 0 min 0 W/m -1,3 C -6,8 C 20,9 km/h (4 Bft)
04.03.2010 11:24 2,9 C 76 % 1018,5 hPa 0,0 l/m 16,0 km/h (3 Bft) NO 40 0 min 0 W/m -0,9 C -4,0 C 16,0 km/h (3 Bft)
04.03.2010 11:30 3,2 C 76 % 1018,5 hPa 0,0 l/m 7,3 km/h (2 Bft) NO 45 0 min 0 W/m -0,6 C 2,4 C 7,3 km/h (2 Bft)
04.03.2010 11:35 4,1 C 74 % 1018,5 hPa 0,0 l/m 13,8 km/h (3 Bft) NO 45 0 min 0 W/m -0,1 C -1,4 C 13,8 km/h (3 Bft)
04.03.2010 11:40 4,9 C 72 % 1018,5 hPa 0,0 l/m 13,6 km/h (3 Bft) O-NO 65 0 min 0 W/m 0,3 C -0,3 C 13,6 km/h (3 Bft)
04.03.2010 11:44 5,2 C 70 % 1018,5 hPa 0,0 l/m 15,5 km/h (3 Bft) N-NO 30 0 min 0 W/m 0,2 C -0,9 C 15,5 km/h (3 Bft)
04.03.2010 11:49 5,4 C 69 % 1018,5 hPa 0,0 l/m 14,6 km/h (3 Bft) NO 45 0 min 0 W/m 0,2 C -0,2 C 14,6 km/h (3 Bft)
04.03.2010 11:54 5,8 C 67 % 1018,5 hPa 0,0 l/m 11,9 km/h (2 Bft) NO 40 0 min 0 W/m 0,2 C 1,7 C 11,9 km/h (2 Bft)
04.03.2010 12:00 5,9 C 66 % 1018,5 hPa 0,0 l/m 13,5 km/h (3 Bft) N-NO 30 0 min 0 W/m 0,0 C 0,9 C 13,5 km/h (3 Bft)
04.03.2010 12:04 6,0 C 67 % 1018,5 hPa 0,0 l/m 12,5 km/h (2 Bft) N-NO 30 0 min 0 W/m 0,3 C 1,6 C 12,5 km/h (2 Bft)
04.03.2010 12:09 6,4 C 64 % 1018,5 hPa 0,0 l/m 18,6 km/h (3 Bft) NO 40 0 min 0 W/m 0,1 C -0,8 C 18,6 km/h (3 Bft)
04.03.2010 12:15 6,4 C 63 % 1018,5 hPa 0,0 l/m 16,5 km/h (3 Bft) NO 40 0 min 0 W/m -0,1 C 0,1 C 16,5 km/h (3 Bft)
04.03.2010 12:19 6,4 C 62 % 1018,5 hPa 0,0 l/m 18,6 km/h (3 Bft) NO 40 0 min 0 W/m -0,3 C -0,8 C 18,6 km/h (3 Bft)
04.03.2010 12:24 6,5 C 61 % 1018,5 hPa 0,0 l/m 16,6 km/h (3 Bft) NO 40 0 min 0 W/m -0,5 C 0,2 C 16,6 km/h (3 Bft)
04.03.2010 12:30 6,4 C 61 % 1018,5 hPa 0,0 l/m 12,1 km/h (2 Bft) NO 45 0 min 0 W/m -0,6 C 2,3 C 12,1 km/h (2 Bft)
04.03.2010 12:35 6,6 C 61 % 1018,5 hPa 0,0 l/m 18,8 km/h (3 Bft) N-NO 30 0 min 0 W/m -0,4 C -0,6 C 18,8 km/h (3 Bft)
04.03.2010 12:39 6,8 C 60 % 1018,5 hPa 0,0 l/m 12,0 km/h (2 Bft) N-NO 30 0 min 0 W/m -0,4 C 2,8 C 12,0 km/h (2 Bft)
04.03.2010 12:44 7,0 C 57 % 1018,5 hPa 0,0 l/m 15,7 km/h (3 Bft) N-NO 30 0 min 0 W/m -0,9 C 1,2 C 15,7 km/h (3 Bft)
04.03.2010 12:49 6,9 C 57 % 1018,5 hPa 0,0 l/m 15,6 km/h (3 Bft) NO 40 0 min 0 W/m -1,0 C 1,1 C 15,6 km/h (3 Bft)
04.03.2010 12:54 6,8 C 59 % 1018,5 hPa 0,0 l/m 11,6 km/h (2 Bft) NO 40 0 min 0 W/m -0,6 C 3,1 C 11,6 km/h (2 Bft)
04.03.2010 13:00 6,9 C 58 % 1018,5 hPa 0,0 l/m 18,5 km/h (3 Bft) NO 50 0 min 0 W/m -0,8 C -0,1 C 18,5 km/h (3 Bft)
04.03.2010 13:04 6,9 C 57 % 1018,5 hPa 0,0 l/m 14,0 km/h (3 Bft) N-NO 30 0 min 0 W/m -1,0 C 1,9 C 14,0 km/h (3 Bft)
04.03.2010 13:09 6,8 C 57 % 1018,5 hPa 0,0 l/m 18,3 km/h (3 Bft) NO 45 0 min 0 W/m -1,1 C -0,2 C 18,3 km/h (3 Bft)
04.03.2010 13:15 6,6 C 56 % 1018,5 hPa 0,0 l/m 17,8 km/h (3 Bft) N-NO 25 0 min 0 W/m -1,5 C -0,2 C 17,8 km/h (3 Bft)
04.03.2010 13:20 6,5 C 57 % 1018,5 hPa 0,0 l/m 18,8 km/h (3 Bft) N-NO 30 0 min 0 W/m -1,4 C -0,8 C 18,8 km/h (3 Bft)
04.03.2010 13:25 6,3 C 55 % 1018,5 hPa 0,0 l/m 23,5 km/h (4 Bft) N-NO 25 0 min 0 W/m -2,1 C -2,7 C 23,5 km/h (4 Bft)
04.03.2010 13:29 6,1 C 56 % 1018,5 hPa 0,0 l/m 16,0 km/h (3 Bft) NO 35 0 min 0 W/m -2,0 C -0,1 C 16,0 km/h (3 Bft)
04.03.2010 13:34 6,0 C 53 % 1018,5 hPa 0,0 l/m 23,5 km/h (4 Bft) N-NO 20 0 min 0 W/m -2,8 C -3,1 C 23,5 km/h (4 Bft)
04.03.2010 13:39 6,0 C 54 % 1019,5 hPa 0,0 l/m 27,0 km/h (5 Bft) NO 45 0 min 0 W/m -2,6 C -4,2 C 27,0 km/h (5 Bft)
04.03.2010 13:44 6,1 C 55 % 1019,5 hPa 0,0 l/m 18,1 km/h (3 Bft) N-NO 25 0 min 0 W/m -2,2 C -1,0 C 18,1 km/h (3 Bft)
04.03.2010 13:50 5,8 C 56 % 1019,5 hPa 0,0 l/m 16,1 km/h (3 Bft) N-NO 25 0 min 0 W/m -2,3 C -0,5 C 16,1 km/h (3 Bft)
04.03.2010 13:55 5,8 C 55 % 1019,5 hPa 0,0 l/m 19,6 km/h (3 Bft) NO 40 0 min 0 W/m -2,5 C -2,0 C 19,6 km/h (3 Bft)
04.03.2010 13:59 5,7 C 55 % 1019,5 hPa 0,0 l/m 20,4 km/h (4 Bft) NO 35 0 min 0 W/m -2,6 C -2,4 C 20,4 km/h (4 Bft)
04.03.2010 14:05 5,6 C 55 % 1019,5 hPa 0,0 l/m 19,6 km/h (3 Bft) N-NO 25 0 min 0 W/m -2,7 C -2,2 C 19,6 km/h (3 Bft)
04.03.2010 14:10 5,7 C 55 % 1019,5 hPa 0,0 l/m 22,6 km/h (4 Bft) N-NO 20 0 min 0 W/m -2,6 C -3,2 C 22,6 km/h (4 Bft)
04.03.2010 14:14 5,5 C 53 % 1019,5 hPa 0,0 l/m 21,5 km/h (4 Bft) N-NO 25 0 min 0 W/m -3,3 C -3,1 C 21,5 km/h (4 Bft)
04.03.2010 14:19 5,5 C 55 % 1019,5 hPa 0,0 l/m 20,0 km/h (4 Bft) N-NO 25 0 min 0 W/m -2,8 C -2,5 C 20,0 km/h (4 Bft)
04.03.2010 14:24 5,5 C 54 % 1019,5 hPa 0,0 l/m 19,3 km/h (3 Bft) N-NO 30 0 min 0 W/m -3,1 C -2,2 C 19,3 km/h (3 Bft)
04.03.2010 14:30 5,5 C 54 % 1019,5 hPa 0,0 l/m 23,2 km/h (4 Bft) NO 35 0 min 0 W/m -3,1 C -3,7 C 23,2 km/h (4 Bft)
04.03.2010 14:35 5,4 C 53 % 1019,5 hPa 0,0 l/m 22,6 km/h (4 Bft) NO 35 0 min 0 W/m -3,4 C -3,6 C 22,6 km/h (4 Bft)
04.03.2010 14:39 5,2 C 53 % 1019,5 hPa 0,0 l/m 21,0 km/h (4 Bft) N-NO 20 0 min 0 W/m -3,6 C -3,3 C 21,0 km/h (4 Bft)
04.03.2010 14:44 5,1 C 53 % 1019,5 hPa 0,0 l/m 24,5 km/h (4 Bft) N-NO 20 0 min 0 W/m -3,7 C -4,6 C 24,5 km/h (4 Bft)
04.03.2010 14:49 5,2 C 54 % 1019,5 hPa 0,0 l/m 20,9 km/h (4 Bft) N-NO 15 0 min 0 W/m -3,3 C -3,3 C 20,9 km/h (4 Bft)
04.03.2010 14:54 4,8 C 56 % 1019,5 hPa 0,0 l/m 21,7 km/h (4 Bft) N-NO 20 0 min 0 W/m -3,2 C -4,1 C 21,7 km/h (4 Bft)
04.03.2010 15:00 4,6 C 56 % 1019,5 hPa 0,0 l/m 26,0 km/h (4 Bft) N-NO 20 0 min 0 W/m -3,4 C -5,8 C 26,0 km/h (4 Bft)
04.03.2010 15:04 4,5 C 55 % 1019,5 hPa 0,0 l/m 28,1 km/h (5 Bft) N-NO 15 0 min 0 W/m -3,7 C -6,6 C 28,1 km/h (5 Bft)
04.03.2010 15:09 4,6 C 54 % 1019,5 hPa 0,0 l/m 21,8 km/h (4 Bft) N-NO 30 0 min 0 W/m -3,9 C -4,4 C 21,8 km/h (4 Bft)
04.03.2010 15:15 4,5 C 55 % 1019,5 hPa 0,0 l/m 24,3 km/h (4 Bft) NO 35 0 min 0 W/m -3,7 C -5,4 C 24,3 km/h (4 Bft)
04.03.2010 15:19 4,4 C 55 % 1019,5 hPa 0,0 l/m 24,5 km/h (4 Bft) NO 35 0 min 0 W/m -3,8 C -5,6 C 24,5 km/h (4 Bft)
04.03.2010 15:24 4,1 C 56 % 1019,5 hPa 0,0 l/m 25,6 km/h (4 Bft) N-NO 15 0 min 0 W/m -3,9 C -6,4 C 25,6 km/h (4 Bft)
04.03.2010 15:29 4,1 C 57 % 1019,5 hPa 0,0 l/m 23,1 km/h (4 Bft) N 5 0 min 0 W/m -3,6 C -5,5 C 23,1 km/h (4 Bft)
04.03.2010 15:34 3,9 C 57 % 1019,5 hPa 0,0 l/m 21,6 km/h (4 Bft) N-NO 30 0 min 0 W/m -3,8 C -5,2 C 21,6 km/h (4 Bft)
04.03.2010 15:40 4,0 C 59 % 1019,5 hPa 0,0 l/m 20,5 km/h (4 Bft) N 5 0 min 0 W/m -3,3 C -4,7 C 20,5 km/h (4 Bft)
04.03.2010 15:45 3,9 C 58 % 1019,5 hPa 0,0 l/m 18,2 km/h (3 Bft) N-NO 25 0 min 0 W/m -3,6 C -3,8 C 18,2 km/h (3 Bft)
04.03.2010 15:49 3,8 C 58 % 1019,5 hPa 0,0 l/m 23,0 km/h (4 Bft) N 10 0 min 0 W/m -3,7 C -5,9 C 23,0 km/h (4 Bft)
04.03.2010 15:54 3,7 C 58 % 1019,5 hPa 0,0 l/m 20,2 km/h (4 Bft) N 5 0 min 0 W/m -3,8 C -4,9 C 20,2 km/h (4 Bft)
04.03.2010 15:59 3,5 C 59 % 1019,5 hPa 0,0 l/m 22,4 km/h (4 Bft) N-NO 15 0 min 0 W/m -3,7 C -6,1 C 22,4 km/h (4 Bft)
04.03.2010 16:04 3,5 C 58 % 1019,5 hPa 0,0 l/m 24,8 km/h (4 Bft) N-NO 20 0 min 0 W/m -4,0 C -6,9 C 24,8 km/h (4 Bft)
04.03.2010 16:09 3,4 C 58 % 1019,5 hPa 0,0 l/m 24,5 km/h (4 Bft) N 360 0 min 0 W/m -4,1 C -6,9 C 24,5 km/h (4 Bft)
04.03.2010 16:14 3,2 C 58 % 1019,5 hPa 0,0 l/m 21,6 km/h (4 Bft) N 10 0 min 0 W/m -4,3 C -6,1 C 21,6 km/h (4 Bft)
04.03.2010 16:15 3,2 C 58 % 1019,5 hPa 0,0 l/m 21,6 km/h (4 Bft) N 10 0 min 0 W/m -4,3 C -6,1 C 21,6 km/h (4 Bft)
04.03.2010 16:19 3,2 C 56 % 1019,5 hPa 0,0 l/m 22,6 km/h (4 Bft) N 10 0 min 0 W/m -4,7 C -6,5 C 22,6 km/h (4 Bft)
04.03.2010 16:24 3,1 C 56 % 1019,5 hPa 0,0 l/m 21,0 km/h (4 Bft) N 5 0 min 0 W/m -4,8 C -6,0 C 21,0 km/h (4 Bft)
04.03.2010 16:30 2,9 C 55 % 1019,5 hPa 0,0 l/m 23,3 km/h (4 Bft) N 355 0 min 0 W/m -5,2 C -7,2 C 23,3 km/h (4 Bft)
04.03.2010 16:34 2,9 C 55 % 1019,5 hPa 0,0 l/m 19,4 km/h (3 Bft) N-NO 15 0 min 0 W/m -5,2 C -5,6 C 19,4 km/h (3 Bft)
04.03.2010 16:39 2,7 C 55 % 1019,5 hPa 0,0 l/m 22,0 km/h (4 Bft) N-NO 15 0 min 0 W/m -5,4 C -7,0 C 22,0 km/h (4 Bft)
04.03.2010 16:44 2,7 C 55 % 1019,5 hPa 0,0 l/m 26,1 km/h (4 Bft) N 10 0 min 0 W/m -5,4 C -8,4 C 26,1 km/h (4 Bft)
04.03.2010 16:49 2,5 C 56 % 1019,5 hPa 0,0 l/m 23,3 km/h (4 Bft) N 355 0 min 0 W/m -5,4 C -7,7 C 23,3 km/h (4 Bft)
04.03.2010 16:55 2,5 C 56 % 1019,5 hPa 0,0 l/m 27,5 km/h (5 Bft) N 5 0 min 0 W/m -5,4 C -9,2 C 27,5 km/h (5 Bft)
04.03.2010 16:59 2,4 C 58 % 1019,5 hPa 0,0 l/m 23,2 km/h (4 Bft) N-NO 15 0 min 0 W/m -5,0 C -7,8 C 23,2 km/h (4 Bft)
04.03.2010 17:05 2,3 C 60 % 1019,5 hPa 0,0 l/m 23,6 km/h (4 Bft) N-NO 15 0 min 0 W/m -4,6 C -8,1 C 23,6 km/h (4 Bft)
04.03.2010 17:10 2,2 C 60 % 1019,5 hPa 0,0 l/m 26,1 km/h (4 Bft) N-NO 15 0 min 0 W/m -4,7 C -9,1 C 26,1 km/h (4 Bft)
04.03.2010 17:14 2,1 C 60 % 1019,5 hPa 0,0 l/m 24,9 km/h (4 Bft) N 360 0 min 0 W/m -4,8 C -8,8 C 24,9 km/h (4 Bft)
04.03.2010 17:19 2,1 C 62 % 1019,5 hPa 0,0 l/m 21,0 km/h (4 Bft) N-NO 25 0 min 0 W/m -4,4 C -7,3 C 21,0 km/h (4 Bft)
04.03.2010 17:24 2,0 C 61 % 1019,5 hPa 0,0 l/m 25,5 km/h (4 Bft) N-NO 25 0 min 0 W/m -4,7 C -9,2 C 25,5 km/h (4 Bft)
04.03.2010 17:29 1,9 C 62 % 1019,5 hPa 0,0 l/m 26,3 km/h (4 Bft) N-NO 20 0 min 0 W/m -4,6 C -9,6 C 26,3 km/h (4 Bft)
04.03.2010 17:35 1,9 C 62 % 1019,5 hPa 0,0 l/m 26,0 km/h (4 Bft) N-NO 15 0 min 0 W/m -4,6 C -9,5 C 26,0 km/h (4 Bft)
04.03.2010 17:40 1,9 C 62 % 1019,5 hPa 0,0 l/m 24,5 km/h (4 Bft) N-NO 15 0 min 0 W/m -4,6 C -9,0 C 24,5 km/h (4 Bft)
04.03.2010 17:44 1,9 C 63 % 1019,5 hPa 0,0 l/m 25,8 km/h (4 Bft) N-NO 15 0 min 0 W/m -4,4 C -9,4 C 25,8 km/h (4 Bft)
04.03.2010 17:49 1,9 C 63 % 1019,5 hPa 0,0 l/m 25,9 km/h (4 Bft) N 5 0 min 0 W/m -4,4 C -9,5 C 25,9 km/h (4 Bft)
04.03.2010 17:54 1,8 C 64 % 1019,5 hPa 0,0 l/m 30,1 km/h (5 Bft) N-NO 25 0 min 0 W/m -4,3 C -10,9 C 30,1 km/h (5 Bft)
04.03.2010 18:00 1,7 C 66 % 1019,5 hPa 0,0 l/m 21,1 km/h (4 Bft) N-NO 15 0 min 0 W/m -4,0 C -7,9 C 21,1 km/h (4 Bft)
04.03.2010 18:05 1,6 C 67 % 1019,5 hPa 0,0 l/m 25,8 km/h (4 Bft) N 360 0 min 0 W/m -3,9 C -9,8 C 25,8 km/h (4 Bft)
04.03.2010 18:09 1,6 C 67 % 1019,5 hPa 0,0 l/m 25,4 km/h (4 Bft) N 5 0 min 0 W/m -3,9 C -9,7 C 25,4 km/h (4 Bft)
04.03.2010 18:14 1,6 C 68 % 1019,5 hPa 0,0 l/m 19,5 km/h (3 Bft) N 5 0 min 0 W/m -3,7 C -7,3 C 19,5 km/h (3 Bft)
04.03.2010 18:19 1,6 C 68 % 1019,5 hPa 0,0 l/m 27,3 km/h (5 Bft) N 5 0 min 0 W/m -3,7 C -10,3 C 27,3 km/h (5 Bft)
04.03.2010 18:25 1,6 C 69 % 1020,5 hPa 0,0 l/m 20,5 km/h (4 Bft) N 10 0 min 0 W/m -3,5 C -7,8 C 20,5 km/h (4 Bft)
04.03.2010 18:30 1,5 C 70 % 1020,5 hPa 0,0 l/m 22,3 km/h (4 Bft) N 360 0 min 0 W/m -3,4 C -8,7 C 22,3 km/h (4 Bft)
04.03.2010 18:34 1,5 C 70 % 1020,5 hPa 0,0 l/m 21,0 km/h (4 Bft) N-NO 15 0 min 0 W/m -3,4 C -8,1 C 21,0 km/h (4 Bft)
04.03.2010 18:39 1,5 C 71 % 1020,5 hPa 0,0 l/m 21,6 km/h (4 Bft) N 360 0 min 0 W/m -3,2 C -8,4 C 21,6 km/h (4 Bft)
04.03.2010 18:44 1,6 C 70 % 1020,5 hPa 0,0 l/m 17,3 km/h (3 Bft) N 360 0 min 0 W/m -3,3 C -6,3 C 17,3 km/h (3 Bft)
04.03.2010 18:50 1,6 C 71 % 1020,5 hPa 0,0 l/m 23,8 km/h (4 Bft) N 10 0 min 0 W/m -3,1 C -9,1 C 23,8 km/h (4 Bft)
04.03.2010 18:55 1,6 C 71 % 1020,5 hPa 0,0 l/m 27,8 km/h (5 Bft) N 10 0 min 0 W/m -3,1 C -10,5 C 27,8 km/h (5 Bft)
04.03.2010 18:59 1,6 C 70 % 1020,5 hPa 0,0 l/m 27,6 km/h (5 Bft) N-NO 25 0 min 0 W/m -3,3 C -10,4 C 27,6 km/h (5 Bft)
04.03.2010 19:05 1,6 C 68 % 1020,5 hPa 0,0 l/m 31,8 km/h (5 Bft) N-NO 15 0 min 0 W/m -3,7 C -11,7 C 31,8 km/h (5 Bft)
04.03.2010 19:09 1,6 C 69 % 1020,5 hPa 0,0 l/m 18,0 km/h (3 Bft) N-NO 25 0 min 0 W/m -3,5 C -6,6 C 18,0 km/h (3 Bft)
04.03.2010 19:14 1,5 C 67 % 1020,5 hPa 0,0 l/m 28,6 km/h (5 Bft) NO 35 0 min 0 W/m -3,9 C -10,9 C 28,6 km/h (5 Bft)
04.03.2010 19:19 1,5 C 67 % 1020,5 hPa 0,0 l/m 24,6 km/h (4 Bft) NO 35 0 min 0 W/m -3,9 C -9,5 C 24,6 km/h (4 Bft)
04.03.2010 19:24 1,5 C 68 % 1020,5 hPa 0,0 l/m 22,3 km/h (4 Bft) NO 45 0 min 0 W/m -3,7 C -8,7 C 22,3 km/h (4 Bft)
04.03.2010 19:30 1,5 C 68 % 1020,5 hPa 0,0 l/m 13,0 km/h (3 Bft) N-NO 25 0 min 0 W/m -3,7 C -3,9 C 13,0 km/h (3 Bft)
04.03.2010 19:34 1,5 C 70 % 1020,5 hPa 0,0 l/m 12,1 km/h (2 Bft) NO 35 0 min 0 W/m -3,4 C -3,3 C 12,1 km/h (2 Bft)
04.03.2010 19:39 1,5 C 70 % 1020,5 hPa 0,0 l/m 7,0 km/h (2 Bft) NO 40 0 min 0 W/m -3,4 C 0,9 C 7,0 km/h (2 Bft)
04.03.2010 19:45 1,5 C 70 % 1020,5 hPa 0,0 l/m 10,4 km/h (2 Bft) NO 45 0 min 0 W/m -3,4 C -2,1 C 10,4 km/h (2 Bft)
04.03.2010 19:49 1,5 C 70 % 1020,5 hPa 0,0 l/m 8,2 km/h (2 Bft) NO 50 0 min 0 W/m -3,4 C -0,3 C 8,2 km/h (2 Bft)
04.03.2010 19:54 1,5 C 70 % 1020,5 hPa 0,0 l/m 7,2 km/h (2 Bft) NO 40 0 min 0 W/m -3,4 C 0,7 C 7,2 km/h (2 Bft)
04.03.2010 19:59 1,5 C 71 % 1020,5 hPa 0,0 l/m 13,6 km/h (3 Bft) NO 50 0 min 0 W/m -3,2 C -4,3 C 13,6 km/h (3 Bft)
04.03.2010 20:04 1,3 C 70 % 1020,5 hPa 0,0 l/m 12,9 km/h (3 Bft) NO 35 0 min 0 W/m -3,6 C -4,1 C 12,9 km/h (3 Bft)
04.03.2010 20:09 1,2 C 68 % 1020,5 hPa 0,0 l/m 18,0 km/h (3 Bft) NO 40 0 min 0 W/m -4,0 C -7,1 C 18,0 km/h (3 Bft)
04.03.2010 20:14 1,2 C 68 % 1020,5 hPa 0,0 l/m 13,1 km/h (3 Bft) NO 40 0 min 0 W/m -4,0 C -4,4 C 13,1 km/h (3 Bft)
04.03.2010 20:20 1,2 C 67 % 1020,5 hPa 0,0 l/m 17,5 km/h (3 Bft) NO 45 0 min 0 W/m -4,2 C -6,9 C 17,5 km/h (3 Bft)
04.03.2010 20:24 1,2 C 66 % 1020,5 hPa 0,0 l/m 24,0 km/h (4 Bft) NO 50 0 min 0 W/m -4,4 C -9,7 C 24,0 km/h (4 Bft)
04.03.2010 20:29 1,1 C 65 % 1020,5 hPa 0,0 l/m 21,6 km/h (4 Bft) NO 40 0 min 0 W/m -4,7 C -8,9 C 21,6 km/h (4 Bft)
04.03.2010 20:34 1,0 C 63 % 1020,5 hPa 0,0 l/m 22,0 km/h (4 Bft) NO 55 0 min 0 W/m -5,2 C -9,2 C 22,0 km/h (4 Bft)
04.03.2010 20:39 0,9 C 63 % 1020,5 hPa 0,0 l/m 21,0 km/h (4 Bft) NO 35 0 min 0 W/m -5,3 C -8,9 C 21,0 km/h (4 Bft)
04.03.2010 20:45 0,8 C 63 % 1020,5 hPa 0,0 l/m 22,3 km/h (4 Bft) NO 40 0 min 0 W/m -5,4 C -9,6 C 22,3 km/h (4 Bft)
04.03.2010 20:49 0,7 C 63 % 1020,5 hPa 0,0 l/m 18,9 km/h (3 Bft) NO 45 0 min 0 W/m -5,5 C -8,2 C 18,9 km/h (3 Bft)
04.03.2010 20:54 0,7 C 63 % 1020,5 hPa 0,0 l/m 20,3 km/h (4 Bft) NO 35 0 min 0 W/m -5,5 C -8,9 C 20,3 km/h (4 Bft)
04.03.2010 20:59 0,7 C 63 % 1020,5 hPa 0,0 l/m 21,6 km/h (4 Bft) NO 40 0 min 0 W/m -5,5 C -9,4 C 21,6 km/h (4 Bft)
04.03.2010 21:04 0,7 C 63 % 1020,5 hPa 0,0 l/m 14,2 km/h (3 Bft) NO 45 0 min 0 W/m -5,5 C -5,7 C 14,2 km/h (3 Bft)
04.03.2010 21:09 0,6 C 63 % 1020,5 hPa 0,0 l/m 21,3 km/h (4 Bft) NO 50 0 min 0 W/m -5,6 C -9,4 C 21,3 km/h (4 Bft)
04.03.2010 21:14 0,6 C 63 % 1020,5 hPa 0,0 l/m 16,6 km/h (3 Bft) NO 35 0 min 0 W/m -5,6 C -7,2 C 16,6 km/h (3 Bft)
04.03.2010 21:20 0,5 C 63 % 1020,5 hPa 0,0 l/m 17,1 km/h (3 Bft) NO 40 0 min 0 W/m -5,7 C -7,6 C 17,1 km/h (3 Bft)
04.03.2010 21:25 0,5 C 62 % 1020,5 hPa 0,0 l/m 18,5 km/h (3 Bft) NO 45 0 min 0 W/m -5,9 C -8,3 C 18,5 km/h (3 Bft)
04.03.2010 21:29 0,4 C 61 % 1021,5 hPa 0,0 l/m 18,8 km/h (3 Bft) NO 55 0 min 0 W/m -6,2 C -8,5 C 18,8 km/h (3 Bft)
04.03.2010 21:34 0,4 C 62 % 1021,5 hPa 0,0 l/m 17,1 km/h (3 Bft) NO 50 0 min 0 W/m -6,0 C -7,7 C 17,1 km/h (3 Bft)
04.03.2010 21:39 0,4 C 62 % 1021,5 hPa 0,0 l/m 18,7 km/h (3 Bft) NO 45 0 min 0 W/m -6,0 C -8,5 C 18,7 km/h (3 Bft)
04.03.2010 21:45 0,3 C 61 % 1021,5 hPa 0,0 l/m 18,4 km/h (3 Bft) NO 45 0 min 0 W/m -6,3 C -8,5 C 18,4 km/h (3 Bft)
04.03.2010 21:50 0,3 C 61 % 1021,5 hPa 0,0 l/m 17,3 km/h (3 Bft) NO 40 0 min 0 W/m -6,3 C -7,9 C 17,3 km/h (3 Bft)
04.03.2010 21:54 0,3 C 62 % 1021,5 hPa 0,0 l/m 14,8 km/h (3 Bft) NO 35 0 min 0 W/m -6,1 C -6,5 C 14,8 km/h (3 Bft)
04.03.2010 21:59 0,3 C 62 % 1021,5 hPa 0,0 l/m 19,0 km/h (3 Bft) NO 40 0 min 0 W/m -6,1 C -8,8 C 19,0 km/h (3 Bft)
04.03.2010 22:04 0,3 C 62 % 1021,5 hPa 0,0 l/m 17,2 km/h (3 Bft) NO 35 0 min 0 W/m -6,1 C -7,9 C 17,2 km/h (3 Bft)
04.03.2010 22:09 0,3 C 63 % 1021,5 hPa 0,0 l/m 21,1 km/h (4 Bft) NO 40 0 min 0 W/m -5,9 C -9,7 C 21,1 km/h (4 Bft)
04.03.2010 22:14 0,2 C 62 % 1021,5 hPa 0,0 l/m 20,9 km/h (4 Bft) NO 45 0 min 0 W/m -6,2 C -9,8 C 20,9 km/h (4 Bft)
04.03.2010 22:15 0,2 C 62 % 1021,5 hPa 0,0 l/m 20,9 km/h (4 Bft) NO 45 0 min 0 W/m -6,2 C -9,8 C 20,9 km/h (4 Bft)
04.03.2010 22:19 0,1 C 62 % 1021,5 hPa 0,0 l/m 13,3 km/h (3 Bft) N-NO 25 0 min 0 W/m -6,3 C -5,8 C 13,3 km/h (3 Bft)
04.03.2010 22:24 0,1 C 62 % 1021,5 hPa 0,0 l/m 25,1 km/h (4 Bft) NO 45 0 min 0 W/m -6,3 C -11,6 C 25,1 km/h (4 Bft)
04.03.2010 22:30 0,1 C 62 % 1021,5 hPa 0,0 l/m 17,7 km/h (3 Bft) NO 40 0 min 0 W/m -6,3 C -8,4 C 17,7 km/h (3 Bft)
04.03.2010 22:34 0,0 C 62 % 1021,5 hPa 0,0 l/m 17,4 km/h (3 Bft) NO 45 0 min 0 W/m -6,4 C -8,3 C 17,4 km/h (3 Bft)
04.03.2010 22:39 0,0 C 62 % 1021,5 hPa 0,0 l/m 22,0 km/h (4 Bft) N-NO 30 0 min 0 W/m -6,4 C -10,5 C 22,0 km/h (4 Bft)
04.03.2010 22:44 0,0 C 62 % 1022,5 hPa 0,0 l/m 14,3 km/h (3 Bft) NO 50 0 min 0 W/m -6,4 C -6,6 C 14,3 km/h (3 Bft)
04.03.2010 22:49 0,0 C 62 % 1022,5 hPa 0,0 l/m 15,1 km/h (3 Bft) NO 35 0 min 0 W/m -6,4 C -7,0 C 15,1 km/h (3 Bft)
04.03.2010 22:55 0,0 C 62 % 1021,5 hPa 0,0 l/m 15,5 km/h (3 Bft) NO 40 0 min 0 W/m -6,4 C -7,3 C 15,5 km/h (3 Bft)
04.03.2010 22:59 0,0 C 62 % 1021,5 hPa 0,0 l/m 14,4 km/h (3 Bft) NO 35 0 min 0 W/m -6,4 C -6,6 C 14,4 km/h (3 Bft)
04.03.2010 23:05 0,0 C 61 % 1021,5 hPa 0,0 l/m 13,6 km/h (3 Bft) NO 35 0 min 0 W/m -6,6 C -6,1 C 13,6 km/h (3 Bft)
04.03.2010 23:10 -0,2 C 61 % 1021,5 hPa 0,0 l/m 13,3 km/h (3 Bft) NO 35 0 min 0 W/m -6,8 C -6,1 C 13,3 km/h (3 Bft)
04.03.2010 23:14 -0,2 C 62 % 1021,5 hPa 0,0 l/m 16,5 km/h (3 Bft) NO 35 0 min 0 W/m -6,6 C -8,1 C 16,5 km/h (3 Bft)
04.03.2010 23:19 -0,2 C 61 % 1022,5 hPa 0,0 l/m 15,8 km/h (3 Bft) NO 35 0 min 0 W/m -6,8 C -7,7 C 15,8 km/h (3 Bft)
04.03.2010 23:24 -0,2 C 61 % 1021,5 hPa 0,0 l/m 17,0 km/h (3 Bft) N-NO 30 0 min 0 W/m -6,8 C -8,4 C 17,0 km/h (3 Bft)
04.03.2010 23:30 -0,2 C 62 % 1022,5 hPa 0,0 l/m 15,6 km/h (3 Bft) NO 35 0 min 0 W/m -6,6 C -7,6 C 15,6 km/h (3 Bft)
04.03.2010 23:34 -0,2 C 60 % 1022,5 hPa 0,0 l/m 18,3 km/h (3 Bft) NO 35 0 min 0 W/m -7,0 C -9,1 C 18,3 km/h (3 Bft)
04.03.2010 23:39 -0,2 C 60 % 1022,5 hPa 0,0 l/m 15,5 km/h (3 Bft) NO 35 0 min 0 W/m -7,0 C -7,5 C 15,5 km/h (3 Bft)
04.03.2010 23:44 -0,2 C 60 % 1022,5 hPa 0,0 l/m 17,5 km/h (3 Bft) NO 45 0 min 0 W/m -7,0 C -8,6 C 17,5 km/h (3 Bft)
04.03.2010 23:49 -0,2 C 58 % 1022,5 hPa 0,0 l/m 16,8 km/h (3 Bft) NO 40 0 min 0 W/m -7,4 C -8,3 C 16,8 km/h (3 Bft)
04.03.2010 23:55 -0,3 C 58 % 1022,5 hPa 0,0 l/m 18,0 km/h (3 Bft) NO 35 0 min 0 W/m -7,5 C -9,0 C 18,0 km/h (3 Bft)
04.03.2010 23:59 -0,3 C 58 % 1022,5 hPa 0,0 l/m 16,1 km/h (3 Bft) NO 35 0 min 0 W/m -7,5 C -8,0 C 16,1 km/h (3 Bft)
_ Min-Zeit 23:55 13:34 04:14 - 03:10 - - - - 23:55 19:05 03:10
Minimum _ -0,3 C 53 % 1016,5 hPa - 0,4 km/h (0 Bft) - - - - -7,5 C -11,7 C 0,4 km/h (0 Bft)
_ Max-Zeit 12:44 04:30 22:44 00:04 19:05 - - 00:04 00:04 10:09 12:54 19:05
Maximum _ 7,0 C 81 % 1022,5 hPa 0,0 l/m 31,8 km/h
N-NO (5 Bft)
- - 0 min 0 W/m 0,4 C 3,1 C 31,8 km/h
N-NO (5 Bft)
Durchschnitt _ 2,6 C 70 % 1018,7 hPa #0,0 l/m 16,1 km/h (3 Bft) NO - #0 min. 0 W/m -2,4 C -3,9 C 16,1 km/h (3 Bft)
copyright by Holger Just